createdAt,value
2023-02-19T00:03:10.806Z,98958.98
2023-02-19T00:08:13.663Z,98964.27
2023-02-19T00:13:16.518Z,98967.16
2023-02-19T00:18:19.327Z,98969.99
2023-02-19T00:23:22.134Z,98961.31
2023-02-19T00:28:25.033Z,98968.52
2023-02-19T00:33:29.606Z,98968.94
2023-02-19T00:38:37.228Z,98974.45
2023-02-19T00:43:40.089Z,98974.06
2023-02-19T00:48:43.012Z,98966.63
2023-02-19T00:53:45.907Z,98957.00
2023-02-19T00:58:49.616Z,98957.48
2023-02-19T01:03:52.455Z,98959.58
2023-02-19T01:08:55.730Z,98969.05
2023-02-19T01:14:00.701Z,98962.15
2023-02-19T01:19:03.876Z,98959.77
2023-02-19T01:24:06.887Z,98959.77
2023-02-19T01:29:10.093Z,98959.20
2023-02-19T01:34:13.185Z,98954.69
2023-02-19T01:39:16.042Z,98950.78
2023-02-19T01:44:19.437Z,98953.23
2023-02-19T01:49:40.043Z,98955.34
2023-02-19T01:54:45.925Z,98956.73
2023-02-19T01:59:55.000Z,98956.73
2023-02-19T02:05:00.263Z,98956.08
2023-02-19T02:10:22.371Z,98966.41
2023-02-19T02:15:35.904Z,98963.55
2023-02-19T02:21:03.368Z,98966.25
2023-02-19T02:26:18.125Z,98963.63
2023-02-19T02:31:31.974Z,98959.38
2023-02-19T02:36:40.292Z,98950.19
2023-02-19T02:41:45.938Z,98953.42
2023-02-19T02:46:48.894Z,98945.58
2023-02-19T02:51:53.902Z,98944.71
2023-02-19T02:56:59.916Z,98940.11
2023-02-19T03:02:11.606Z,98935.30
2023-02-19T03:07:14.894Z,98933.95
2023-02-19T03:12:38.819Z,98935.30
2023-02-19T03:18:07.426Z,98934.64
2023-02-19T03:23:12.885Z,98933.19
2023-02-19T03:28:20.425Z,98930.39
2023-02-19T03:33:29.227Z,98932.27
2023-02-19T03:38:57.214Z,98934.54
2023-02-19T03:44:34.469Z,98924.27
2023-02-19T03:50:02.531Z,98923.44
2023-02-19T03:55:18.130Z,98926.32
2023-02-19T04:00:50.952Z,98921.32
2023-02-19T04:06:01.519Z,98917.38
2023-02-19T04:11:05.999Z,98917.52
2023-02-19T04:16:16.425Z,98915.62
2023-02-19T04:21:21.063Z,98905.63
2023-02-19T04:26:24.080Z,98891.33
2023-02-19T04:31:30.153Z,98887.45
2023-02-19T04:36:33.854Z,98891.00
2023-02-19T04:41:36.755Z,98884.42
2023-02-19T04:46:43.102Z,98878.67
2023-02-19T04:51:46.090Z,98868.59
2023-02-19T04:56:50.739Z,98870.88
2023-02-19T05:01:53.619Z,98872.48
2023-02-19T05:06:56.441Z,98860.52
2023-02-19T05:11:59.244Z,98857.17
2023-02-19T05:17:02.075Z,98854.40
2023-02-19T05:22:04.898Z,98852.73
2023-02-19T05:27:07.768Z,98853.24
2023-02-19T05:32:10.723Z,98852.91
2023-02-19T05:37:13.587Z,98845.73
2023-02-19T05:42:16.552Z,98836.36
2023-02-19T05:47:19.440Z,98839.66
2023-02-19T05:52:22.260Z,98829.38
2023-02-19T05:57:25.124Z,98818.53
2023-02-19T06:02:27.979Z,98812.08
2023-02-19T06:07:31.851Z,98810.83
2023-02-19T06:12:34.906Z,98817.29
2023-02-19T06:17:37.738Z,98822.84
2023-02-19T06:22:40.566Z,98825.95
2023-02-19T06:27:43.432Z,98847.77
2023-02-19T06:32:46.294Z,98849.67
2023-02-19T06:37:50.068Z,98857.08
2023-02-19T06:42:52.966Z,98862.76
2023-02-19T06:47:55.812Z,98874.23
2023-02-19T06:52:59.115Z,98878.88
2023-02-19T06:58:01.952Z,98879.55
2023-02-19T07:03:05.650Z,98877.13
2023-02-19T07:08:08.551Z,98866.47
2023-02-19T07:13:11.745Z,98857.91
2023-02-19T07:18:14.550Z,98866.05
2023-02-19T07:23:17.385Z,98873.77
2023-02-19T07:28:20.789Z,98884.45
2023-02-19T07:33:23.617Z,98887.60
2023-02-19T07:38:27.552Z,98900.16
2023-02-19T07:43:33.097Z,98898.58
2023-02-19T07:48:37.482Z,98888.30
2023-02-19T07:53:40.344Z,98883.27
2023-02-19T07:58:43.568Z,98880.63
2023-02-19T08:03:48.273Z,98878.39
2023-02-19T08:08:57.073Z,98879.77
2023-02-19T08:14:00.000Z,98876.70
2023-02-19T08:19:05.518Z,98876.02
2023-02-19T08:24:08.458Z,98875.29
2023-02-19T08:29:11.295Z,98877.52
2023-02-19T08:34:14.154Z,98880.48
2023-02-19T08:39:18.408Z,98879.90
2023-02-19T08:44:22.254Z,98890.23
2023-02-19T08:49:28.276Z,98896.66
2023-02-19T08:54:31.099Z,98895.92
2023-02-19T08:59:33.991Z,98891.34
2023-02-19T09:04:37.837Z,98886.33
2023-02-19T09:09:40.796Z,98888.10
2023-02-19T09:14:43.717Z,98883.93
2023-02-19T09:19:46.585Z,98884.39
2023-02-19T09:24:49.439Z,98881.45
2023-02-19T09:29:52.288Z,98879.49
2023-02-19T09:34:55.134Z,98879.56
2023-02-19T09:39:58.013Z,98877.52
2023-02-19T09:45:01.992Z,98877.19
2023-02-19T09:50:12.414Z,98881.25
2023-02-19T09:55:18.807Z,98888.48
2023-02-19T10:00:26.710Z,98884.91
2023-02-19T10:05:30.288Z,98886.17
2023-02-19T10:10:37.196Z,98884.20
2023-02-19T10:15:48.772Z,98888.07
2023-02-19T10:20:52.952Z,98881.00
2023-02-19T10:25:58.020Z,98883.59
2023-02-19T10:31:04.382Z,98881.16
2023-02-19T10:36:16.233Z,98883.96
2023-02-19T10:41:22.528Z,98886.59
2023-02-19T10:46:35.167Z,98885.45
2023-02-19T10:51:41.303Z,98894.02
2023-02-19T10:56:44.209Z,98899.37
2023-02-19T11:02:17.453Z,98901.27
2023-02-19T11:07:20.239Z,98903.21
2023-02-19T11:12:31.434Z,98907.48
2023-02-19T11:17:34.446Z,98905.13
2023-02-19T11:22:41.900Z,98910.27
2023-02-19T11:28:06.990Z,98916.58
2023-02-19T11:33:25.429Z,98911.38
2023-02-19T11:38:28.808Z,98911.24
2023-02-19T11:43:43.360Z,98916.46
2023-02-19T11:48:59.253Z,98920.39
2023-02-19T11:54:13.686Z,98921.45
2023-02-19T11:59:33.469Z,98923.75
2023-02-19T12:05:00.922Z,98921.13
2023-02-19T12:10:21.125Z,98920.32
2023-02-19T12:15:36.001Z,98926.41
2023-02-19T12:20:47.531Z,98935.55
2023-02-19T12:25:53.488Z,98947.66
2023-02-19T12:30:59.681Z,98951.46
2023-02-19T12:36:44.608Z,98951.80
2023-02-19T12:42:07.557Z,98964.98
2023-02-19T12:47:20.629Z,98973.48
2023-02-19T12:52:29.193Z,98977.27
2023-02-19T12:57:37.136Z,98980.38
2023-02-19T13:02:56.561Z,98986.94
2023-02-19T13:08:15.184Z,98998.20
2023-02-19T13:13:26.795Z,99001.55
2023-02-19T13:18:44.275Z,99006.09
2023-02-19T13:23:59.131Z,99011.89
2023-02-19T13:29:25.684Z,99011.14
2023-02-19T13:34:48.328Z,99018.86
2023-02-19T13:39:54.776Z,99028.44
2023-02-19T13:44:58.834Z,99033.83
2023-02-19T13:50:24.951Z,99038.76
2023-02-19T13:55:51.995Z,99039.35
2023-02-19T14:00:55.099Z,99041.52
2023-02-19T14:06:23.653Z,99044.55
2023-02-19T14:11:42.894Z,99049.80
2023-02-19T14:16:54.441Z,99047.50
2023-02-19T14:21:58.231Z,99054.72
2023-02-19T14:27:01.154Z,99066.34
2023-02-19T14:32:05.526Z,99071.13
2023-02-19T14:37:19.484Z,99085.45
2023-02-19T14:42:33.525Z,99084.13
2023-02-19T14:47:37.886Z,99089.81
2023-02-19T14:52:49.286Z,99096.64
2023-02-19T14:57:56.692Z,99103.69
2023-02-19T15:03:00.100Z,99108.47
2023-02-19T15:08:15.630Z,99110.95
2023-02-19T15:13:28.216Z,99117.34
2023-02-19T15:18:35.691Z,99130.59
2023-02-19T15:23:39.118Z,99135.91
2023-02-19T15:28:42.248Z,99132.27
2023-02-19T15:33:52.799Z,99134.11
2023-02-19T15:39:02.878Z,99142.13
2023-02-19T15:44:41.433Z,99145.27
2023-02-19T15:50:18.490Z,99158.90
2023-02-19T15:55:45.700Z,99159.71
2023-02-19T16:00:56.418Z,99156.15
2023-02-19T16:06:03.312Z,99162.17
2023-02-19T16:11:28.149Z,99178.84
2023-02-19T16:16:38.839Z,99187.60
2023-02-19T16:21:44.214Z,99201.30
2023-02-19T16:26:47.097Z,99215.30
2023-02-19T16:32:00.921Z,99225.45
2023-02-19T16:37:03.993Z,99231.86
2023-02-19T16:42:13.526Z,99241.42
2023-02-19T16:47:34.393Z,99244.52
2023-02-19T16:52:39.208Z,99250.90
2023-02-19T16:57:42.135Z,99261.73
2023-02-19T17:02:51.527Z,99270.27
2023-02-19T17:07:54.469Z,99280.48
2023-02-19T17:12:57.327Z,99290.21
2023-02-19T17:18:00.164Z,99298.69
2023-02-19T17:23:03.019Z,99308.11
2023-02-19T17:28:05.844Z,99313.98
2023-02-19T17:33:08.699Z,99321.33
2023-02-19T17:38:15.826Z,99330.60
2023-02-19T17:43:18.632Z,99340.20
2023-02-19T17:48:21.470Z,99342.34
2023-02-19T17:53:24.283Z,99342.88
2023-02-19T17:58:27.134Z,99353.60
2023-02-19T18:03:30.153Z,99370.58
2023-02-19T18:08:32.997Z,99375.42
2023-02-19T18:13:35.821Z,99385.30
2023-02-19T18:18:38.641Z,99398.73
2023-02-19T18:23:42.302Z,99404.08
2023-02-19T18:28:45.164Z,99412.02
2023-02-19T18:33:48.010Z,99416.63
2023-02-19T18:38:50.822Z,99425.13
2023-02-19T18:43:53.671Z,99427.98
2023-02-19T18:48:56.658Z,99431.52
2023-02-19T18:54:01.739Z,99430.52
2023-02-19T18:59:04.737Z,99432.87
2023-02-19T19:04:07.647Z,99435.14
2023-02-19T19:09:10.727Z,99436.24
2023-02-19T19:14:13.730Z,99441.23
2023-02-19T19:19:19.779Z,99449.56
2023-02-19T19:24:24.532Z,99453.05
2023-02-19T19:29:27.716Z,99460.08
2023-02-19T19:34:30.812Z,99470.02
2023-02-19T19:39:39.206Z,99474.80
2023-02-19T19:44:45.318Z,99476.65
2023-02-19T19:49:48.212Z,99481.25
2023-02-19T19:54:54.132Z,99484.69
2023-02-19T19:59:57.004Z,99485.98
2023-02-19T20:04:59.839Z,99493.33
2023-02-19T20:10:02.706Z,99498.80
2023-02-19T20:15:06.811Z,99500.92
2023-02-19T20:20:10.256Z,99504.97
2023-02-19T20:25:13.133Z,99500.26
2023-02-19T20:30:20.020Z,99501.59
2023-02-19T20:35:28.480Z,99503.98
2023-02-19T20:40:32.361Z,99510.24
2023-02-19T20:45:35.088Z,99510.60
2023-02-19T20:50:38.074Z,99515.56
2023-02-19T20:55:40.880Z,99531.05
2023-02-19T21:00:44.079Z,99538.78
2023-02-19T21:05:47.166Z,99547.79
2023-02-19T21:10:49.979Z,99551.36
2023-02-19T21:15:52.855Z,99555.61
2023-02-19T21:20:55.690Z,99562.73
2023-02-19T21:25:58.879Z,99569.55
2023-02-19T21:31:01.770Z,99577.55
2023-02-19T21:36:05.983Z,99583.29
2023-02-19T21:41:08.803Z,99585.88
2023-02-19T21:46:19.001Z,99595.02
2023-02-19T21:51:29.865Z,99600.52
2023-02-19T21:56:36.373Z,99600.08
2023-02-19T22:01:40.456Z,99604.23
2023-02-19T22:06:44.258Z,99606.58
2023-02-19T22:11:47.080Z,99605.63
2023-02-19T22:16:49.975Z,99607.67
2023-02-19T22:21:52.893Z,99610.47
2023-02-19T22:26:57.469Z,99621.19
2023-02-19T22:32:00.424Z,99628.23
2023-02-19T22:37:03.600Z,99634.70
2023-02-19T22:42:06.445Z,99629.84
2023-02-19T22:47:09.284Z,99630.17
2023-02-19T22:52:12.821Z,99635.23
2023-02-19T22:57:15.660Z,99634.58
2023-02-19T23:02:18.490Z,99633.94
2023-02-19T23:07:21.382Z,99638.73
2023-02-19T23:12:24.292Z,99646.01
2023-02-19T23:17:27.103Z,99652.89
2023-02-19T23:22:30.040Z,99656.02
2023-02-19T23:27:32.890Z,99655.58
2023-02-19T23:32:35.774Z,99656.48
2023-02-19T23:37:38.606Z,99653.70
2023-02-19T23:42:41.452Z,99655.29
2023-02-19T23:47:44.275Z,99649.38
2023-02-19T23:52:47.279Z,99651.69
2023-02-19T23:57:50.126Z,99652.67
